Mount Hood, Oregon
Current Conditions -  °F | °C
As of 7:39 PM on Sunday 23 Nov 2014 (Local Time) from K4S2 Reporting Station
Moderate Rain Moderate Rain  
Wind Chill: 45°   Ceiling: 3900
Heat Index: 48°   Visibility: 10mi
Dew Point: 45°   Wind: 7mph
Humidity: 87%   Direction: 290°WNW
Pressure: 30.3"   Gusts: NA
Location:  45.3977°N, 121.59°W
Report Text: K4S2 240339Z AUTO 29006KT 10SM RA SCT026 BKN039 OVC044 09/07 A3030 RMK AO2 SLP275 T00900070
Loading
Personal Weather Stations






























Interactive Weather Map New forecast layout! Learn more

10-Day Weather Forecast

Advertisements
Track Severe Weather on mobile